sensor_id;sensor_type;location;lat;lon;timestamp;temperature;humidity
72277;SHT30;61204;49.980;8.358;2023-09-19T00:00:46;16.27;94.83
72277;SHT30;61204;49.980;8.358;2023-09-19T00:03:15;16.25;94.84
72277;SHT30;61204;49.980;8.358;2023-09-19T00:05:41;16.18;95.19
72277;SHT30;61204;49.980;8.358;2023-09-19T00:08:13;16.22;95.28
72277;SHT30;61204;49.980;8.358;2023-09-19T00:10:39;16.17;95.27
72277;SHT30;61204;49.980;8.358;2023-09-19T00:13:06;16.17;95.40
72277;SHT30;61204;49.980;8.358;2023-09-19T00:15:47;16.10;95.60
72277;SHT30;61204;49.980;8.358;2023-09-19T00:18:14;16.01;95.70
72277;SHT30;61204;49.980;8.358;2023-09-19T00:20:41;15.97;95.81
72277;SHT30;61204;49.980;8.358;2023-09-19T00:23:07;15.96;95.72
72277;SHT30;61204;49.980;8.358;2023-09-19T00:25:37;15.91;95.97
72277;SHT30;61204;49.980;8.358;2023-09-19T00:28:04;15.90;95.95
72277;SHT30;61204;49.980;8.358;2023-09-19T00:30:31;15.85;95.98
72277;SHT30;61204;49.980;8.358;2023-09-19T00:32:58;15.80;96.08
72277;SHT30;61204;49.980;8.358;2023-09-19T00:35:23;15.70;96.14
72277;SHT30;61204;49.980;8.358;2023-09-19T00:37:50;15.69;96.27
72277;SHT30;61204;49.980;8.358;2023-09-19T00:40:18;15.63;96.35
72277;SHT30;61204;49.980;8.358;2023-09-19T00:42:46;15.54;96.43
72277;SHT30;61204;49.980;8.358;2023-09-19T00:45:14;15.48;96.64
72277;SHT30;61204;49.980;8.358;2023-09-19T00:47:46;15.48;96.66
72277;SHT30;61204;49.980;8.358;2023-09-19T00:50:17;15.72;96.46
72277;SHT30;61204;49.980;8.358;2023-09-19T00:52:46;15.70;96.35
72277;SHT30;61204;49.980;8.358;2023-09-19T00:55:16;15.66;96.41
72277;SHT30;61204;49.980;8.358;2023-09-19T00:57:45;15.72;96.49
72277;SHT30;61204;49.980;8.358;2023-09-19T01:00:13;15.79;96.42
72277;SHT30;61204;49.980;8.358;2023-09-19T01:02:45;15.78;96.51
72277;SHT30;61204;49.980;8.358;2023-09-19T01:05:12;15.76;96.54
72277;SHT30;61204;49.980;8.358;2023-09-19T01:07:39;15.69;96.57
72277;SHT30;61204;49.980;8.358;2023-09-19T01:10:14;15.69;96.65
72277;SHT30;61204;49.980;8.358;2023-09-19T01:16:12;15.73;96.85
72277;SHT30;61204;49.980;8.358;2023-09-19T01:19:02;15.73;96.81
72277;SHT30;61204;49.980;8.358;2023-09-19T01:28:54;15.69;96.98
72277;SHT30;61204;49.980;8.358;2023-09-19T01:31:34;15.69;96.72
72277;SHT30;61204;49.980;8.358;2023-09-19T01:34:03;15.62;96.68
72277;SHT30;61204;49.980;8.358;2023-09-19T01:36:34;15.59;96.63
72277;SHT30;61204;49.980;8.358;2023-09-19T01:39:06;15.52;96.81
72277;SHT30;61204;49.980;8.358;2023-09-19T01:41:56;15.48;96.76
72277;SHT30;61204;49.980;8.358;2023-09-19T01:44:43;15.45;96.92
72277;SHT30;61204;49.980;8.358;2023-09-19T01:47:32;15.51;97.03
72277;SHT30;61204;49.980;8.358;2023-09-19T01:53:18;15.67;96.40
72277;SHT30;61204;49.980;8.358;2023-09-19T01:55:49;15.74;95.76
72277;SHT30;61204;49.980;8.358;2023-09-19T01:58:54;15.80;95.21
72277;SHT30;61204;49.980;8.358;2023-09-19T02:01:25;16.00;94.49
72277;SHT30;61204;49.980;8.358;2023-09-19T02:03:53;16.27;93.28
72277;SHT30;61204;49.980;8.358;2023-09-19T02:06:21;16.41;92.39
72277;SHT30;61204;49.980;8.358;2023-09-19T02:08:49;16.37;92.41
72277;SHT30;61204;49.980;8.358;2023-09-19T02:11:15;16.40;91.89
72277;SHT30;61204;49.980;8.358;2023-09-19T02:13:41;16.45;91.42
72277;SHT30;61204;49.980;8.358;2023-09-19T02:16:09;16.40;91.46
72277;SHT30;61204;49.980;8.358;2023-09-19T02:18:36;16.31;91.68
72277;SHT30;61204;49.980;8.358;2023-09-19T02:21:02;16.14;92.20
72277;SHT30;61204;49.980;8.358;2023-09-19T02:23:30;16.22;91.72
72277;SHT30;61204;49.980;8.358;2023-09-19T02:25:56;16.34;90.88
72277;SHT30;61204;49.980;8.358;2023-09-19T02:28:31;16.34;90.79
72277;SHT30;61204;49.980;8.358;2023-09-19T02:30:58;16.37;90.55
72277;SHT30;61204;49.980;8.358;2023-09-19T02:33:24;16.28;90.65
72277;SHT30;61204;49.980;8.358;2023-09-19T02:35:49;16.29;90.71
72277;SHT30;61204;49.980;8.358;2023-09-19T02:38:20;16.24;90.59
72277;SHT30;61204;49.980;8.358;2023-09-19T02:40:50;16.20;90.55
72277;SHT30;61204;49.980;8.358;2023-09-19T02:43:18;16.13;90.65
72277;SHT30;61204;49.980;8.358;2023-09-19T02:45:48;16.17;90.38
72277;SHT30;61204;49.980;8.358;2023-09-19T02:48:18;16.10;90.38
72277;SHT30;61204;49.980;8.358;2023-09-19T02:50:45;16.04;90.60
72277;SHT30;61204;49.980;8.358;2023-09-19T02:53:13;16.00;90.66
72277;SHT30;61204;49.980;8.358;2023-09-19T02:55:42;15.96;90.62
72277;SHT30;61204;49.980;8.358;2023-09-19T02:58:08;15.79;91.06
72277;SHT30;61204;49.980;8.358;2023-09-19T03:00:36;15.65;91.52
72277;SHT30;61204;49.980;8.358;2023-09-19T03:03:02;15.49;92.05
72277;SHT30;61204;49.980;8.358;2023-09-19T03:05:29;15.32;92.62
72277;SHT30;61204;49.980;8.358;2023-09-19T03:07:56;15.11;93.33
72277;SHT30;61204;49.980;8.358;2023-09-19T03:10:26;14.87;94.05
72277;SHT30;61204;49.980;8.358;2023-09-19T03:12:53;14.68;94.75
72277;SHT30;61204;49.980;8.358;2023-09-19T03:15:19;14.58;95.36
72277;SHT30;61204;49.980;8.358;2023-09-19T03:17:47;14.51;95.61
72277;SHT30;61204;49.980;8.358;2023-09-19T03:20:15;14.62;95.70
72277;SHT30;61204;49.980;8.358;2023-09-19T03:22:45;14.56;96.01
72277;SHT30;61204;49.980;8.358;2023-09-19T03:25:12;14.66;95.98
72277;SHT30;61204;49.980;8.358;2023-09-19T03:27:39;14.61;95.77
72277;SHT30;61204;49.980;8.358;2023-09-19T03:30:08;14.61;95.66
72277;SHT30;61204;49.980;8.358;2023-09-19T03:32:46;14.59;95.66
72277;SHT30;61204;49.980;8.358;2023-09-19T03:35:15;14.54;95.68
72277;SHT30;61204;49.980;8.358;2023-09-19T03:37:45;14.45;95.68
72277;SHT30;61204;49.980;8.358;2023-09-19T03:40:12;14.37;95.91
72277;SHT30;61204;49.980;8.358;2023-09-19T03:42:41;14.27;96.22
72277;SHT30;61204;49.980;8.358;2023-09-19T03:45:08;14.25;96.35
72277;SHT30;61204;49.980;8.358;2023-09-19T03:47:38;14.14;96.48
72277;SHT30;61204;49.980;8.358;2023-09-19T03:50:06;14.18;96.69
72277;SHT30;61204;49.980;8.358;2023-09-19T03:52:40;14.18;96.65
72277;SHT30;61204;49.980;8.358;2023-09-19T03:55:06;14.14;96.76
72277;SHT30;61204;49.980;8.358;2023-09-19T03:57:32;14.09;97.03
72277;SHT30;61204;49.980;8.358;2023-09-19T03:59:58;14.04;97.25
72277;SHT30;61204;49.980;8.358;2023-09-19T04:02:24;14.13;97.24
72277;SHT30;61204;49.980;8.358;2023-09-19T04:04:51;14.24;97.28
72277;SHT30;61204;49.980;8.358;2023-09-19T04:07:18;14.25;97.16
72277;SHT30;61204;49.980;8.358;2023-09-19T04:09:48;14.28;97.42
72277;SHT30;61204;49.980;8.358;2023-09-19T04:12:14;14.42;97.20
72277;SHT30;61204;49.980;8.358;2023-09-19T04:14:42;14.56;96.91
72277;SHT30;61204;49.980;8.358;2023-09-19T04:17:08;14.56;96.77
72277;SHT30;61204;49.980;8.358;2023-09-19T04:19:33;14.62;96.79
72277;SHT30;61204;49.980;8.358;2023-09-19T04:21:59;14.66;96.53
72277;SHT30;61204;49.980;8.358;2023-09-19T04:24:24;14.75;96.12
72277;SHT30;61204;49.980;8.358;2023-09-19T04:26:50;14.71;95.58
72277;SHT30;61204;49.980;8.358;2023-09-19T04:29:16;14.66;95.72
72277;SHT30;61204;49.980;8.358;2023-09-19T04:31:43;14.59;95.55
72277;SHT30;61204;49.980;8.358;2023-09-19T04:34:10;14.51;95.68
72277;SHT30;61204;49.980;8.358;2023-09-19T04:36:39;14.42;95.91
72277;SHT30;61204;49.980;8.358;2023-09-19T04:39:05;14.42;95.89
72277;SHT30;61204;49.980;8.358;2023-09-19T04:41:31;14.35;95.99
72277;SHT30;61204;49.980;8.358;2023-09-19T04:43:56;14.34;96.25
72277;SHT30;61204;49.980;8.358;2023-09-19T04:46:22;14.28;96.10
72277;SHT30;61204;49.980;8.358;2023-09-19T04:48:47;14.25;96.15
72277;SHT30;61204;49.980;8.358;2023-09-19T04:51:13;14.20;96.15
72277;SHT30;61204;49.980;8.358;2023-09-19T04:53:40;14.16;96.11
72277;SHT30;61204;49.980;8.358;2023-09-19T04:56:06;14.14;96.11
72277;SHT30;61204;49.980;8.358;2023-09-19T04:58:33;14.07;96.04
72277;SHT30;61204;49.980;8.358;2023-09-19T05:00:59;14.06;96.26
72277;SHT30;61204;49.980;8.358;2023-09-19T05:03:25;14.04;96.13
72277;SHT30;61204;49.980;8.358;2023-09-19T05:05:50;14.09;95.95
72277;SHT30;61204;49.980;8.358;2023-09-19T05:08:16;14.04;95.90
72277;SHT30;61204;49.980;8.358;2023-09-19T05:10:41;14.13;95.85
72277;SHT30;61204;49.980;8.358;2023-09-19T05:13:07;14.13;95.61
72277;SHT30;61204;49.980;8.358;2023-09-19T05:15:33;14.13;95.57
72277;SHT30;61204;49.980;8.358;2023-09-19T05:18:01;14.21;95.08
72277;SHT30;61204;49.980;8.358;2023-09-19T05:20:26;14.25;94.68
72277;SHT30;61204;49.980;8.358;2023-09-19T05:23:03;14.22;94.60
72277;SHT30;61204;49.980;8.358;2023-09-19T05:25:33;14.22;94.50
72277;SHT30;61204;49.980;8.358;2023-09-19T05:28:02;14.21;94.45
72277;SHT30;61204;49.980;8.358;2023-09-19T05:30:29;14.18;94.40
72277;SHT30;61204;49.980;8.358;2023-09-19T05:32:55;14.28;93.89
72277;SHT30;61204;49.980;8.358;2023-09-19T05:35:22;14.42;93.31
72277;SHT30;61204;49.980;8.358;2023-09-19T05:37:51;14.46;92.99
72277;SHT30;61204;49.980;8.358;2023-09-19T05:40:17;14.51;92.70
72277;SHT30;61204;49.980;8.358;2023-09-19T05:42:45;14.51;92.71
72277;SHT30;61204;49.980;8.358;2023-09-19T05:45:13;14.46;92.49
72277;SHT30;61204;49.980;8.358;2023-09-19T05:47:46;14.54;92.47
72277;SHT30;61204;49.980;8.358;2023-09-19T05:50:12;14.63;91.61
72277;SHT30;61204;49.980;8.358;2023-09-19T05:52:38;14.68;91.30
72277;SHT30;61204;49.980;8.358;2023-09-19T05:55:05;14.66;91.72
72277;SHT30;61204;49.980;8.358;2023-09-19T05:57:32;14.72;91.41
72277;SHT30;61204;49.980;8.358;2023-09-19T06:00:01;14.75;91.28
72277;SHT30;61204;49.980;8.358;2023-09-19T06:02:27;14.86;91.23
72277;SHT30;61204;49.980;8.358;2023-09-19T06:04:56;14.87;91.03
72277;SHT30;61204;49.980;8.358;2023-09-19T06:07:24;14.96;90.91
72277;SHT30;61204;49.980;8.358;2023-09-19T06:09:52;15.03;90.85
72277;SHT30;61204;49.980;8.358;2023-09-19T06:12:23;15.11;90.98
72277;SHT30;61204;49.980;8.358;2023-09-19T06:14:49;15.14;90.69
72277;SHT30;61204;49.980;8.358;2023-09-19T06:17:14;15.20;90.26
72277;SHT30;61204;49.980;8.358;2023-09-19T06:19:42;15.18;90.71
72277;SHT30;61204;49.980;8.358;2023-09-19T06:22:15;15.17;90.88
72277;SHT30;61204;49.980;8.358;2023-09-19T06:24:44;15.16;90.69
72277;SHT30;61204;49.980;8.358;2023-09-19T06:27:12;15.24;90.61
72277;SHT30;61204;49.980;8.358;2023-09-19T06:29:38;15.41;89.34
72277;SHT30;61204;49.980;8.358;2023-09-19T06:32:08;15.63;88.67
72277;SHT30;61204;49.980;8.358;2023-09-19T06:34:34;15.79;88.20
72277;SHT30;61204;49.980;8.358;2023-09-19T06:36:59;15.82;87.25
72277;SHT30;61204;49.980;8.358;2023-09-19T06:39:25;15.67;88.02
72277;SHT30;61204;49.980;8.358;2023-09-19T06:41:52;15.85;88.26
72277;SHT30;61204;49.980;8.358;2023-09-19T06:44:23;15.83;87.59
72277;SHT30;61204;49.980;8.358;2023-09-19T06:46:50;15.86;87.28
72277;SHT30;61204;49.980;8.358;2023-09-19T06:49:19;15.83;87.06
72277;SHT30;61204;49.980;8.358;2023-09-19T06:51:47;15.96;86.19
72277;SHT30;61204;49.980;8.358;2023-09-19T06:54:12;15.99;86.74
72277;SHT30;61204;49.980;8.358;2023-09-19T06:56:38;16.04;86.55
72277;SHT30;61204;49.980;8.358;2023-09-19T06:59:03;16.21;86.26
72277;SHT30;61204;49.980;8.358;2023-09-19T07:01:31;16.22;85.17
72277;SHT30;61204;49.980;8.358;2023-09-19T07:03:57;16.45;85.03
72277;SHT30;61204;49.980;8.358;2023-09-19T07:06:23;16.42;84.32
72277;SHT30;61204;49.980;8.358;2023-09-19T07:08:49;16.42;84.91
72277;SHT30;61204;49.980;8.358;2023-09-19T07:11:15;16.40;83.86
72277;SHT30;61204;49.980;8.358;2023-09-19T07:13:41;16.61;83.94
72277;SHT30;61204;49.980;8.358;2023-09-19T07:16:07;16.66;83.55
72277;SHT30;61204;49.980;8.358;2023-09-19T07:18:34;16.73;83.61
72277;SHT30;61204;49.980;8.358;2023-09-19T07:20:59;16.82;82.88
72277;SHT30;61204;49.980;8.358;2023-09-19T07:23:31;16.94;83.12
72277;SHT30;61204;49.980;8.358;2023-09-19T07:26:03;16.80;81.56
72277;SHT30;61204;49.980;8.358;2023-09-19T07:28:31;16.94;82.58
72277;SHT30;61204;49.980;8.358;2023-09-19T07:31:02;16.86;81.91
72277;SHT30;61204;49.980;8.358;2023-09-19T07:33:36;16.93;83.07
72277;SHT30;61204;49.980;8.358;2023-09-19T07:36:02;17.02;82.49
72277;SHT30;61204;49.980;8.358;2023-09-19T07:38:28;17.14;81.90
72277;SHT30;61204;49.980;8.358;2023-09-19T07:41:00;17.42;81.32
72277;SHT30;61204;49.980;8.358;2023-09-19T07:43:27;17.25;79.37
72277;SHT30;61204;49.980;8.358;2023-09-19T07:45:53;17.28;80.44
72277;SHT30;61204;49.980;8.358;2023-09-19T07:48:19;17.38;78.95
72277;SHT30;61204;49.980;8.358;2023-09-19T07:50:44;17.34;78.60
72277;SHT30;61204;49.980;8.358;2023-09-19T07:53:11;17.27;78.98
72277;SHT30;61204;49.980;8.358;2023-09-19T07:55:39;17.46;77.67
72277;SHT30;61204;49.980;8.358;2023-09-19T07:58:06;17.41;77.35
72277;SHT30;61204;49.980;8.358;2023-09-19T08:00:32;17.66;76.98
72277;SHT30;61204;49.980;8.358;2023-09-19T08:03:00;17.63;75.19
72277;SHT30;61204;49.980;8.358;2023-09-19T08:05:27;17.71;76.32
72277;SHT30;61204;49.980;8.358;2023-09-19T08:07:54;17.71;76.27
72277;SHT30;61204;49.980;8.358;2023-09-19T08:10:21;17.75;76.09
72277;SHT30;61204;49.980;8.358;2023-09-19T08:12:48;17.51;73.91
72277;SHT30;61204;49.980;8.358;2023-09-19T08:15:23;17.72;73.63
72277;SHT30;61204;49.980;8.358;2023-09-19T08:17:49;17.68;71.64
72277;SHT30;61204;49.980;8.358;2023-09-19T08:20:15;17.56;71.09
72277;SHT30;61204;49.980;8.358;2023-09-19T08:22:50;17.62;70.92
72277;SHT30;61204;49.980;8.358;2023-09-19T08:25:24;17.71;70.34
72277;SHT30;61204;49.980;8.358;2023-09-19T08:27:51;17.83;71.15
72277;SHT30;61204;49.980;8.358;2023-09-19T08:30:19;17.90;70.51
72277;SHT30;61204;49.980;8.358;2023-09-19T08:32:49;17.87;69.19
72277;SHT30;61204;49.980;8.358;2023-09-19T08:35:15;18.00;69.83
72277;SHT30;61204;49.980;8.358;2023-09-19T08:37:42;17.85;69.19
72277;SHT30;61204;49.980;8.358;2023-09-19T08:40:11;17.82;69.00
72277;SHT30;61204;49.980;8.358;2023-09-19T08:42:51;17.76;68.70
72277;SHT30;61204;49.980;8.358;2023-09-19T08:45:23;18.07;68.07
72277;SHT30;61204;49.980;8.358;2023-09-19T08:50:39;17.94;68.08
72277;SHT30;61204;49.980;8.358;2023-09-19T08:53:11;18.11;68.79
72277;SHT30;61204;49.980;8.358;2023-09-19T08:55:48;17.85;67.62
72277;SHT30;61204;49.980;8.358;2023-09-19T08:58:19;17.90;66.10
72277;SHT30;61204;49.980;8.358;2023-09-19T09:00:48;17.93;67.48
72277;SHT30;61204;49.980;8.358;2023-09-19T09:03:18;18.27;65.25
72277;SHT30;61204;49.980;8.358;2023-09-19T09:05:47;17.93;65.18
72277;SHT30;61204;49.980;8.358;2023-09-19T09:08:17;17.89;65.76
72277;SHT30;61204;49.980;8.358;2023-09-19T09:10:45;18.00;64.59
72277;SHT30;61204;49.980;8.358;2023-09-19T09:13:14;17.91;64.79
72277;SHT30;61204;49.980;8.358;2023-09-19T09:15:42;17.91;62.77
72277;SHT30;61204;49.980;8.358;2023-09-19T09:18:10;18.17;62.54
72277;SHT30;61204;49.980;8.358;2023-09-19T09:20:38;18.17;62.84
72277;SHT30;61204;49.980;8.358;2023-09-19T09:23:07;18.27;63.93
72277;SHT30;61204;49.980;8.358;2023-09-19T09:25:53;18.61;63.42
72277;SHT30;61204;49.980;8.358;2023-09-19T09:28:22;18.62;61.67
72277;SHT30;61204;49.980;8.358;2023-09-19T09:30:54;18.58;63.35
72277;SHT30;61204;49.980;8.358;2023-09-19T09:33:21;18.68;64.03
72277;SHT30;61204;49.980;8.358;2023-09-19T09:36:01;18.59;63.98
72277;SHT30;61204;49.980;8.358;2023-09-19T09:38:48;18.83;63.79
72277;SHT30;61204;49.980;8.358;2023-09-19T09:41:36;19.50;63.11
72277;SHT30;61204;49.980;8.358;2023-09-19T09:44:17;19.97;60.69
72277;SHT30;61204;49.980;8.358;2023-09-19T09:46:46;19.57;62.29
72277;SHT30;61204;49.980;8.358;2023-09-19T09:49:27;19.70;60.62
72277;SHT30;61204;49.980;8.358;2023-09-19T09:52:01;20.09;60.57
72277;SHT30;61204;49.980;8.358;2023-09-19T09:54:59;19.62;59.23
72277;SHT30;61204;49.980;8.358;2023-09-19T09:57:33;19.20;60.67
72277;SHT30;61204;49.980;8.358;2023-09-19T10:00:01;19.94;58.10
72277;SHT30;61204;49.980;8.358;2023-09-19T10:02:39;19.92;57.86
72277;SHT30;61204;49.980;8.358;2023-09-19T10:07:42;19.32;58.40
72277;SHT30;61204;49.980;8.358;2023-09-19T10:10:15;19.72;58.14
72277;SHT30;61204;49.980;8.358;2023-09-19T10:12:58;19.39;58.72
72277;SHT30;61204;49.980;8.358;2023-09-19T10:15:32;19.08;57.29
72277;SHT30;61204;49.980;8.358;2023-09-19T10:18:01;19.76;58.41
72277;SHT30;61204;49.980;8.358;2023-09-19T10:20:28;20.04;56.55
72277;SHT30;61204;49.980;8.358;2023-09-19T10:23:10;19.98;56.05
72277;SHT30;61204;49.980;8.358;2023-09-19T10:25:41;20.33;55.56
72277;SHT30;61204;49.980;8.358;2023-09-19T10:28:12;20.13;55.61
72277;SHT30;61204;49.980;8.358;2023-09-19T10:30:47;20.42;55.99
72277;SHT30;61204;49.980;8.358;2023-09-19T10:33:18;20.96;52.91
72277;SHT30;61204;49.980;8.358;2023-09-19T10:35:48;21.00;54.01
72277;SHT30;61204;49.980;8.358;2023-09-19T10:38:23;20.47;53.57
72277;SHT30;61204;49.980;8.358;2023-09-19T10:40:53;20.75;52.69
72277;SHT30;61204;49.980;8.358;2023-09-19T10:43:31;20.42;52.77
72277;SHT30;61204;49.980;8.358;2023-09-19T10:46:02;20.16;54.32
72277;SHT30;61204;49.980;8.358;2023-09-19T10:48:37;20.49;53.57
72277;SHT30;61204;49.980;8.358;2023-09-19T10:51:14;20.58;54.14
72277;SHT30;61204;49.980;8.358;2023-09-19T10:54:28;20.42;55.04
72277;SHT30;61204;49.980;8.358;2023-09-19T10:56:46;20.65;54.93
72277;SHT30;61204;49.980;8.358;2023-09-19T10:59:20;20.56;53.28
72277;SHT30;61204;49.980;8.358;2023-09-19T11:01:50;21.10;52.27
72277;SHT30;61204;49.980;8.358;2023-09-19T11:04:32;20.65;52.49
72277;SHT30;61204;49.980;8.358;2023-09-19T11:07:12;21.28;51.22
72277;SHT30;61204;49.980;8.358;2023-09-19T11:09:55;21.04;51.78
72277;SHT30;61204;49.980;8.358;2023-09-19T11:14:56;21.47;51.29
72277;SHT30;61204;49.980;8.358;2023-09-19T11:17:42;21.06;49.84
72277;SHT30;61204;49.980;8.358;2023-09-19T11:30:39;21.31;50.56
72277;SHT30;61204;49.980;8.358;2023-09-19T11:33:31;21.68;49.69
72277;SHT30;61204;49.980;8.358;2023-09-19T11:36:06;21.41;49.02
72277;SHT30;61204;49.980;8.358;2023-09-19T11:43:52;21.65;47.68
72277;SHT30;61204;49.980;8.358;2023-09-19T11:46:21;21.52;48.29
72277;SHT30;61204;49.980;8.358;2023-09-19T11:48:51;21.78;48.65
72277;SHT30;61204;49.980;8.358;2023-09-19T11:51:21;22.10;48.33
72277;SHT30;61204;49.980;8.358;2023-09-19T11:53:56;22.58;46.70
72277;SHT30;61204;49.980;8.358;2023-09-19T11:56:25;22.88;48.05
72277;SHT30;61204;49.980;8.358;2023-09-19T11:58:57;22.34;46.55
72277;SHT30;61204;49.980;8.358;2023-09-19T12:01:32;21.71;48.62
72277;SHT30;61204;49.980;8.358;2023-09-19T12:04:02;21.75;49.11
72277;SHT30;61204;49.980;8.358;2023-09-19T12:06:30;21.71;48.39
72277;SHT30;61204;49.980;8.358;2023-09-19T12:08:58;21.92;47.21
72277;SHT30;61204;49.980;8.358;2023-09-19T12:11:30;22.40;45.76
72277;SHT30;61204;49.980;8.358;2023-09-19T12:14:01;22.10;45.98
72277;SHT30;61204;49.980;8.358;2023-09-19T12:16:28;22.75;45.81
72277;SHT30;61204;49.980;8.358;2023-09-19T12:18:57;22.43;45.83
72277;SHT30;61204;49.980;8.358;2023-09-19T12:21:30;22.47;45.87
72277;SHT30;61204;49.980;8.358;2023-09-19T12:24:12;22.04;44.76
72277;SHT30;61204;49.980;8.358;2023-09-19T12:26:45;22.34;45.72
72277;SHT30;61204;49.980;8.358;2023-09-19T12:29:21;22.81;43.67
72277;SHT30;61204;49.980;8.358;2023-09-19T12:31:57;21.92;45.35
72277;SHT30;61204;49.980;8.358;2023-09-19T12:34:28;22.47;45.37
72277;SHT30;61204;49.980;8.358;2023-09-19T12:39:47;21.93;45.38
72277;SHT30;61204;49.980;8.358;2023-09-19T12:42:24;21.74;46.22
72277;SHT30;61204;49.980;8.358;2023-09-19T12:44:58;21.97;45.87
72277;SHT30;61204;49.980;8.358;2023-09-19T12:47:28;22.37;44.55
72277;SHT30;61204;49.980;8.358;2023-09-19T12:52:49;22.29;43.80
72277;SHT30;61204;49.980;8.358;2023-09-19T12:55:31;22.34;44.62
72277;SHT30;61204;49.980;8.358;2023-09-19T12:58:14;22.44;43.25
72277;SHT30;61204;49.980;8.358;2023-09-19T13:00:45;22.31;44.89
72277;SHT30;61204;49.980;8.358;2023-09-19T13:06:02;21.95;45.32
72277;SHT30;61204;49.980;8.358;2023-09-19T13:08:37;21.99;45.41
72277;SHT30;61204;49.980;8.358;2023-09-19T13:11:15;21.78;46.06
72277;SHT30;61204;49.980;8.358;2023-09-19T13:14:14;22.12;46.45
72277;SHT30;61204;49.980;8.358;2023-09-19T13:19:47;22.38;46.15
72277;SHT30;61204;49.980;8.358;2023-09-19T13:22:45;22.36;46.11
72277;SHT30;61204;49.980;8.358;2023-09-19T13:25:19;23.00;45.19
72277;SHT30;61204;49.980;8.358;2023-09-19T13:27:51;22.92;44.49
72277;SHT30;61204;49.980;8.358;2023-09-19T13:30:24;22.72;45.61
72277;SHT30;61204;49.980;8.358;2023-09-19T13:33:07;22.75;43.31
72277;SHT30;61204;49.980;8.358;2023-09-19T13:35:38;22.30;43.25
72277;SHT30;61204;49.980;8.358;2023-09-19T13:38:06;22.37;44.32
72277;SHT30;61204;49.980;8.358;2023-09-19T13:40:34;22.03;44.91
72277;SHT30;61204;49.980;8.358;2023-09-19T13:43:03;21.63;44.17
72277;SHT30;61204;49.980;8.358;2023-09-19T13:45:29;21.44;44.40
72277;SHT30;61204;49.980;8.358;2023-09-19T13:47:57;21.38;45.71
72277;SHT30;61204;49.980;8.358;2023-09-19T13:50:24;21.49;46.09
72277;SHT30;61204;49.980;8.358;2023-09-19T13:52:51;21.42;47.12
72277;SHT30;61204;49.980;8.358;2023-09-19T13:55:18;21.17;45.55
72277;SHT30;61204;49.980;8.358;2023-09-19T13:57:49;21.31;45.64
72277;SHT30;61204;49.980;8.358;2023-09-19T14:00:20;21.37;45.89
72277;SHT30;61204;49.980;8.358;2023-09-19T14:02:51;21.71;46.17
72277;SHT30;61204;49.980;8.358;2023-09-19T14:05:17;21.86;46.89
72277;SHT30;61204;49.980;8.358;2023-09-19T14:07:44;21.78;45.89
72277;SHT30;61204;49.980;8.358;2023-09-19T14:10:13;22.03;46.17
72277;SHT30;61204;49.980;8.358;2023-09-19T14:12:39;21.62;47.19
72277;SHT30;61204;49.980;8.358;2023-09-19T14:15:09;21.74;46.31
72277;SHT30;61204;49.980;8.358;2023-09-19T14:17:35;21.78;46.95
72277;SHT30;61204;49.980;8.358;2023-09-19T14:20:02;21.58;46.60
72277;SHT30;61204;49.980;8.358;2023-09-19T14:22:27;21.90;46.01
72277;SHT30;61204;49.980;8.358;2023-09-19T14:24:53;22.13;46.68
72277;SHT30;61204;49.980;8.358;2023-09-19T14:27:19;22.24;45.90
72277;SHT30;61204;49.980;8.358;2023-09-19T14:29:44;22.16;46.78
72277;SHT30;61204;49.980;8.358;2023-09-19T14:32:10;22.27;45.93
72277;SHT30;61204;49.980;8.358;2023-09-19T14:34:36;21.79;46.98
72277;SHT30;61204;49.980;8.358;2023-09-19T14:37:08;22.33;46.96
72277;SHT30;61204;49.980;8.358;2023-09-19T14:39:33;22.55;46.11
72277;SHT30;61204;49.980;8.358;2023-09-19T14:41:59;22.31;46.32
72277;SHT30;61204;49.980;8.358;2023-09-19T14:44:25;22.33;46.72
72277;SHT30;61204;49.980;8.358;2023-09-19T14:46:53;22.24;47.59
72277;SHT30;61204;49.980;8.358;2023-09-19T14:49:20;22.69;45.75
72277;SHT30;61204;49.980;8.358;2023-09-19T14:51:48;22.64;46.13
72277;SHT30;61204;49.980;8.358;2023-09-19T14:54:15;23.16;46.08
72277;SHT30;61204;49.980;8.358;2023-09-19T14:56:42;23.19;45.20
72277;SHT30;61204;49.980;8.358;2023-09-19T14:59:08;22.64;45.01
72277;SHT30;61204;49.980;8.358;2023-09-19T15:01:36;22.55;45.94
72277;SHT30;61204;49.980;8.358;2023-09-19T15:04:03;22.25;45.81
72277;SHT30;61204;49.980;8.358;2023-09-19T15:06:29;22.68;46.19
72277;SHT30;61204;49.980;8.358;2023-09-19T15:08:55;23.23;45.49
72277;SHT30;61204;49.980;8.358;2023-09-19T15:11:20;22.51;46.74
72277;SHT30;61204;49.980;8.358;2023-09-19T15:13:47;22.13;47.43
72277;SHT30;61204;49.980;8.358;2023-09-19T15:16:15;21.82;47.15
72277;SHT30;61204;49.980;8.358;2023-09-19T15:18:44;22.02;47.71
72277;SHT30;61204;49.980;8.358;2023-09-19T15:21:14;21.89;48.22
72277;SHT30;61204;49.980;8.358;2023-09-19T15:23:41;22.10;48.24
72277;SHT30;61204;49.980;8.358;2023-09-19T15:26:12;22.34;47.76
72277;SHT30;61204;49.980;8.358;2023-09-19T15:28:40;23.14;46.54
72277;SHT30;61204;49.980;8.358;2023-09-19T15:31:08;22.85;47.05
72277;SHT30;61204;49.980;8.358;2023-09-19T15:33:36;23.21;46.25
72277;SHT30;61204;49.980;8.358;2023-09-19T15:36:11;23.21;46.94
72277;SHT30;61204;49.980;8.358;2023-09-19T15:41:18;23.61;46.76
72277;SHT30;61204;49.980;8.358;2023-09-19T15:43:45;22.75;49.25
72277;SHT30;61204;49.980;8.358;2023-09-19T15:46:13;23.23;47.87
72277;SHT30;61204;49.980;8.358;2023-09-19T15:48:40;22.47;49.80
72277;SHT30;61204;49.980;8.358;2023-09-19T15:51:06;22.79;49.54
72277;SHT30;61204;49.980;8.358;2023-09-19T15:53:46;22.54;49.57
72277;SHT30;61204;49.980;8.358;2023-09-19T15:56:17;22.33;49.65
72277;SHT30;61204;49.980;8.358;2023-09-19T15:58:45;22.38;49.29
72277;SHT30;61204;49.980;8.358;2023-09-19T16:01:12;22.04;50.73
72277;SHT30;61204;49.980;8.358;2023-09-19T16:03:42;22.49;50.03
72277;SHT30;61204;49.980;8.358;2023-09-19T16:06:10;22.14;50.94
72277;SHT30;61204;49.980;8.358;2023-09-19T16:08:41;22.06;51.35
72277;SHT30;61204;49.980;8.358;2023-09-19T16:11:09;21.93;51.54
72277;SHT30;61204;49.980;8.358;2023-09-19T16:13:37;21.69;52.57
72277;SHT30;61204;49.980;8.358;2023-09-19T16:16:04;21.49;53.96
72277;SHT30;61204;49.980;8.358;2023-09-19T16:18:31;21.57;54.31
72277;SHT30;61204;49.980;8.358;2023-09-19T16:21:03;21.35;54.98
72277;SHT30;61204;49.980;8.358;2023-09-19T16:23:30;21.30;54.79
72277;SHT30;61204;49.980;8.358;2023-09-19T16:28:35;21.32;54.73
72277;SHT30;61204;49.980;8.358;2023-09-19T16:31:08;21.37;54.63
72277;SHT30;61204;49.980;8.358;2023-09-19T16:33:37;21.37;54.85
72277;SHT30;61204;49.980;8.358;2023-09-19T16:36:26;21.32;55.40
72277;SHT30;61204;49.980;8.358;2023-09-19T16:38:55;21.37;55.69
72277;SHT30;61204;49.980;8.358;2023-09-19T16:41:21;21.48;54.73